sensor_id;sensor_type;location;lat;lon;timestamp;P1;durP1;ratioP1;P2;durP2;ratioP2
29732;SDS011;16643;43.158;25.302;2023-06-19T00:01:48;15.38;;;10.68;;
29732;SDS011;16643;43.158;25.302;2023-06-19T00:04:13;14.68;;;10.60;;
29732;SDS011;16643;43.158;25.302;2023-06-19T00:06:39;14.65;;;10.35;;
29732;SDS011;16643;43.158;25.302;2023-06-19T00:09:06;12.82;;;10.48;;
29732;SDS011;16643;43.158;25.302;2023-06-19T00:11:32;11.23;;;9.88;;
29732;SDS011;16643;43.158;25.302;2023-06-19T00:13:58;15.05;;;10.43;;
29732;SDS011;16643;43.158;25.302;2023-06-19T00:16:24;14.20;;;10.43;;
29732;SDS011;16643;43.158;25.302;2023-06-19T00:18:50;11.52;;;9.32;;
29732;SDS011;16643;43.158;25.302;2023-06-19T00:21:21;11.95;;;9.82;;
29732;SDS011;16643;43.158;25.302;2023-06-19T00:23:50;11.18;;;9.20;;
29732;SDS011;16643;43.158;25.302;2023-06-19T00:26:17;11.73;;;9.90;;
29732;SDS011;16643;43.158;25.302;2023-06-19T00:28:46;14.57;;;9.00;;
29732;SDS011;16643;43.158;25.302;2023-06-19T00:31:15;13.20;;;9.60;;
29732;SDS011;16643;43.158;25.302;2023-06-19T00:33:41;9.93;;;8.15;;
29732;SDS011;16643;43.158;25.302;2023-06-19T00:36:11;13.23;;;9.18;;
29732;SDS011;16643;43.158;25.302;2023-06-19T00:38:38;10.68;;;8.52;;
29732;SDS011;16643;43.158;25.302;2023-06-19T00:41:04;11.00;;;9.02;;
29732;SDS011;16643;43.158;25.302;2023-06-19T00:43:31;11.07;;;8.80;;
29732;SDS011;16643;43.158;25.302;2023-06-19T00:45:57;10.45;;;8.07;;
29732;SDS011;16643;43.158;25.302;2023-06-19T00:48:24;10.88;;;8.85;;
29732;SDS011;16643;43.158;25.302;2023-06-19T00:50:52;9.10;;;7.78;;
29732;SDS011;16643;43.158;25.302;2023-06-19T00:53:18;10.35;;;7.90;;
29732;SDS011;16643;43.158;25.302;2023-06-19T00:55:44;14.05;;;8.18;;
29732;SDS011;16643;43.158;25.302;2023-06-19T00:58:11;9.88;;;8.05;;
29732;SDS011;16643;43.158;25.302;2023-06-19T01:00:37;10.23;;;8.35;;
29732;SDS011;16643;43.158;25.302;2023-06-19T01:03:03;12.80;;;8.65;;
29732;SDS011;16643;43.158;25.302;2023-06-19T01:05:29;9.23;;;7.63;;
29732;SDS011;16643;43.158;25.302;2023-06-19T01:08:12;10.38;;;7.85;;
29732;SDS011;16643;43.158;25.302;2023-06-19T01:10:49;10.02;;;7.75;;
29732;SDS011;16643;43.158;25.302;2023-06-19T01:15:49;10.02;;;7.53;;
29732;SDS011;16643;43.158;25.302;2023-06-19T01:18:16;9.45;;;7.38;;
29732;SDS011;16643;43.158;25.302;2023-06-19T01:20:43;10.27;;;7.53;;
29732;SDS011;16643;43.158;25.302;2023-06-19T01:23:09;9.65;;;7.18;;
29732;SDS011;16643;43.158;25.302;2023-06-19T01:25:36;10.15;;;7.05;;
29732;SDS011;16643;43.158;25.302;2023-06-19T01:28:06;9.90;;;6.78;;
29732;SDS011;16643;43.158;25.302;2023-06-19T01:30:36;9.75;;;7.05;;
29732;SDS011;16643;43.158;25.302;2023-06-19T01:35:36;10.27;;;6.75;;
29732;SDS011;16643;43.158;25.302;2023-06-19T01:38:04;8.68;;;6.72;;
29732;SDS011;16643;43.158;25.302;2023-06-19T01:40:32;7.90;;;5.97;;
29732;SDS011;16643;43.158;25.302;2023-06-19T01:42:59;9.82;;;6.65;;
29732;SDS011;16643;43.158;25.302;2023-06-19T01:45:29;10.90;;;7.20;;
29732;SDS011;16643;43.158;25.302;2023-06-19T01:47:55;8.73;;;6.28;;
29732;SDS011;16643;43.158;25.302;2023-06-19T01:50:22;7.60;;;6.30;;
29732;SDS011;16643;43.158;25.302;2023-06-19T01:52:49;8.52;;;7.15;;
29732;SDS011;16643;43.158;25.302;2023-06-19T01:55:15;14.30;;;6.47;;
29732;SDS011;16643;43.158;25.302;2023-06-19T01:57:40;8.80;;;6.93;;
29732;SDS011;16643;43.158;25.302;2023-06-19T02:00:06;13.45;;;7.07;;
29732;SDS011;16643;43.158;25.302;2023-06-19T02:02:33;10.48;;;7.25;;
29732;SDS011;16643;43.158;25.302;2023-06-19T02:04:59;10.43;;;6.63;;
29732;SDS011;16643;43.158;25.302;2023-06-19T02:07:24;13.00;;;7.68;;
29732;SDS011;16643;43.158;25.302;2023-06-19T02:09:50;9.05;;;7.00;;
29732;SDS011;16643;43.158;25.302;2023-06-19T02:12:16;9.43;;;6.13;;
29732;SDS011;16643;43.158;25.302;2023-06-19T02:14:41;12.13;;;7.35;;
29732;SDS011;16643;43.158;25.302;2023-06-19T02:17:07;8.90;;;6.60;;
29732;SDS011;16643;43.158;25.302;2023-06-19T02:19:33;10.18;;;6.50;;
29732;SDS011;16643;43.158;25.302;2023-06-19T02:21:58;10.88;;;6.72;;
29732;SDS011;16643;43.158;25.302;2023-06-19T02:24:24;9.25;;;6.65;;
29732;SDS011;16643;43.158;25.302;2023-06-19T02:26:50;8.32;;;6.50;;
29732;SDS011;16643;43.158;25.302;2023-06-19T02:29:16;8.50;;;6.75;;
29732;SDS011;16643;43.158;25.302;2023-06-19T02:31:41;11.02;;;7.22;;
29732;SDS011;16643;43.158;25.302;2023-06-19T02:34:08;8.77;;;7.18;;
29732;SDS011;16643;43.158;25.302;2023-06-19T02:36:36;13.60;;;7.15;;
29732;SDS011;16643;43.158;25.302;2023-06-19T02:39:05;11.15;;;7.25;;
29732;SDS011;16643;43.158;25.302;2023-06-19T02:41:33;9.93;;;7.78;;
29732;SDS011;16643;43.158;25.302;2023-06-19T02:43:59;11.23;;;6.68;;
29732;SDS011;16643;43.158;25.302;2023-06-19T02:46:25;7.25;;;6.35;;
29732;SDS011;16643;43.158;25.302;2023-06-19T02:48:50;9.55;;;6.43;;
29732;SDS011;16643;43.158;25.302;2023-06-19T02:51:16;9.27;;;6.57;;
29732;SDS011;16643;43.158;25.302;2023-06-19T02:53:42;8.82;;;6.47;;
29732;SDS011;16643;43.158;25.302;2023-06-19T02:56:09;9.65;;;6.55;;
29732;SDS011;16643;43.158;25.302;2023-06-19T02:58:36;8.15;;;6.63;;
29732;SDS011;16643;43.158;25.302;2023-06-19T03:01:03;9.05;;;6.97;;
29732;SDS011;16643;43.158;25.302;2023-06-19T03:03:29;8.50;;;6.72;;
29732;SDS011;16643;43.158;25.302;2023-06-19T03:05:55;13.80;;;7.13;;
29732;SDS011;16643;43.158;25.302;2023-06-19T03:08:21;8.93;;;6.80;;
29732;SDS011;16643;43.158;25.302;2023-06-19T03:10:47;9.98;;;6.90;;
29732;SDS011;16643;43.158;25.302;2023-06-19T03:13:13;9.25;;;7.00;;
29732;SDS011;16643;43.158;25.302;2023-06-19T03:15:39;8.80;;;6.63;;
29732;SDS011;16643;43.158;25.302;2023-06-19T03:18:04;8.43;;;6.55;;
29732;SDS011;16643;43.158;25.302;2023-06-19T03:20:32;8.88;;;6.28;;
29732;SDS011;16643;43.158;25.302;2023-06-19T03:22:58;7.70;;;6.28;;
29732;SDS011;16643;43.158;25.302;2023-06-19T03:25:24;7.90;;;5.65;;
29732;SDS011;16643;43.158;25.302;2023-06-19T03:27:49;8.68;;;6.57;;
29732;SDS011;16643;43.158;25.302;2023-06-19T03:30:15;10.15;;;6.20;;
29732;SDS011;16643;43.158;25.302;2023-06-19T03:35:09;10.15;;;6.72;;
29732;SDS011;16643;43.158;25.302;2023-06-19T03:37:35;8.85;;;6.35;;
29732;SDS011;16643;43.158;25.302;2023-06-19T03:40:01;7.93;;;6.53;;
29732;SDS011;16643;43.158;25.302;2023-06-19T03:42:28;13.20;;;5.90;;
29732;SDS011;16643;43.158;25.302;2023-06-19T03:44:54;8.60;;;5.65;;
29732;SDS011;16643;43.158;25.302;2023-06-19T03:47:20;9.30;;;6.00;;
29732;SDS011;16643;43.158;25.302;2023-06-19T03:49:46;8.48;;;5.93;;
29732;SDS011;16643;43.158;25.302;2023-06-19T03:52:13;7.00;;;5.67;;
29732;SDS011;16643;43.158;25.302;2023-06-19T03:54:39;7.43;;;6.00;;
29732;SDS011;16643;43.158;25.302;2023-06-19T03:57:05;7.47;;;5.75;;
29732;SDS011;16643;43.158;25.302;2023-06-19T03:59:31;7.10;;;5.57;;
29732;SDS011;16643;43.158;25.302;2023-06-19T04:01:57;9.95;;;6.55;;
29732;SDS011;16643;43.158;25.302;2023-06-19T04:04:24;8.90;;;5.93;;
29732;SDS011;16643;43.158;25.302;2023-06-19T04:06:49;7.45;;;6.13;;
29732;SDS011;16643;43.158;25.302;2023-06-19T04:09:15;8.82;;;6.05;;
29732;SDS011;16643;43.158;25.302;2023-06-19T04:11:41;8.07;;;6.15;;
29732;SDS011;16643;43.158;25.302;2023-06-19T04:14:06;8.68;;;5.93;;
29732;SDS011;16643;43.158;25.302;2023-06-19T04:16:32;8.50;;;5.72;;
29732;SDS011;16643;43.158;25.302;2023-06-19T04:18:58;10.50;;;5.90;;
29732;SDS011;16643;43.158;25.302;2023-06-19T04:21:24;9.32;;;5.38;;
29732;SDS011;16643;43.158;25.302;2023-06-19T04:23:51;7.85;;;5.30;;
29732;SDS011;16643;43.158;25.302;2023-06-19T04:26:17;7.75;;;5.47;;
29732;SDS011;16643;43.158;25.302;2023-06-19T04:28:43;7.57;;;5.70;;
29732;SDS011;16643;43.158;25.302;2023-06-19T04:31:09;9.38;;;5.50;;
29732;SDS011;16643;43.158;25.302;2023-06-19T04:33:34;6.60;;;5.20;;
29732;SDS011;16643;43.158;25.302;2023-06-19T04:36:00;8.05;;;5.22;;
29732;SDS011;16643;43.158;25.302;2023-06-19T04:38:26;8.77;;;4.68;;
29732;SDS011;16643;43.158;25.302;2023-06-19T04:40:51;7.50;;;5.55;;
29732;SDS011;16643;43.158;25.302;2023-06-19T04:43:17;7.05;;;4.82;;
29732;SDS011;16643;43.158;25.302;2023-06-19T04:45:43;8.65;;;6.18;;
29732;SDS011;16643;43.158;25.302;2023-06-19T04:48:11;6.95;;;5.15;;
29732;SDS011;16643;43.158;25.302;2023-06-19T04:50:37;7.40;;;5.32;;
29732;SDS011;16643;43.158;25.302;2023-06-19T04:53:03;7.47;;;5.03;;
29732;SDS011;16643;43.158;25.302;2023-06-19T04:55:31;6.72;;;4.95;;
29732;SDS011;16643;43.158;25.302;2023-06-19T04:57:59;6.68;;;5.00;;
29732;SDS011;16643;43.158;25.302;2023-06-19T05:00:24;7.90;;;5.60;;
29732;SDS011;16643;43.158;25.302;2023-06-19T05:02:53;6.72;;;5.60;;
29732;SDS011;16643;43.158;25.302;2023-06-19T05:05:23;7.53;;;5.13;;
29732;SDS011;16643;43.158;25.302;2023-06-19T05:07:48;7.72;;;5.25;;
29732;SDS011;16643;43.158;25.302;2023-06-19T05:10:17;7.32;;;5.75;;
29732;SDS011;16643;43.158;25.302;2023-06-19T05:12:44;6.70;;;4.78;;
29732;SDS011;16643;43.158;25.302;2023-06-19T05:17:53;7.43;;;4.70;;
29732;SDS011;16643;43.158;25.302;2023-06-19T05:20:22;9.98;;;5.32;;
29732;SDS011;16643;43.158;25.302;2023-06-19T05:22:58;6.97;;;4.70;;
29732;SDS011;16643;43.158;25.302;2023-06-19T05:25:26;7.20;;;5.18;;
29732;SDS011;16643;43.158;25.302;2023-06-19T05:28:04;9.35;;;5.85;;
29732;SDS011;16643;43.158;25.302;2023-06-19T05:30:48;7.45;;;5.18;;
29732;SDS011;16643;43.158;25.302;2023-06-19T05:33:18;14.50;;;5.55;;
29732;SDS011;16643;43.158;25.302;2023-06-19T05:35:51;8.68;;;5.28;;
29732;SDS011;16643;43.158;25.302;2023-06-19T05:38:19;7.10;;;4.70;;
29732;SDS011;16643;43.158;25.302;2023-06-19T05:40:50;5.60;;;4.45;;
29732;SDS011;16643;43.158;25.302;2023-06-19T05:43:28;7.60;;;5.05;;
29732;SDS011;16643;43.158;25.302;2023-06-19T05:46:21;8.07;;;5.30;;
29732;SDS011;16643;43.158;25.302;2023-06-19T05:48:47;8.10;;;5.82;;
29732;SDS011;16643;43.158;25.302;2023-06-19T05:51:40;7.82;;;5.40;;
29732;SDS011;16643;43.158;25.302;2023-06-19T05:54:55;7.23;;;5.23;;
29732;SDS011;16643;43.158;25.302;2023-06-19T05:57:30;6.47;;;4.57;;
29732;SDS011;16643;43.158;25.302;2023-06-19T06:00:11;6.97;;;4.65;;
29732;SDS011;16643;43.158;25.302;2023-06-19T06:03:07;6.07;;;4.53;;
29732;SDS011;16643;43.158;25.302;2023-06-19T06:05:33;6.82;;;5.38;;
29732;SDS011;16643;43.158;25.302;2023-06-19T06:08:03;5.30;;;4.32;;
29732;SDS011;16643;43.158;25.302;2023-06-19T06:10:47;5.93;;;5.05;;
29732;SDS011;16643;43.158;25.302;2023-06-19T06:13:33;7.57;;;5.82;;
29732;SDS011;16643;43.158;25.302;2023-06-19T06:16:07;7.35;;;4.70;;
29732;SDS011;16643;43.158;25.302;2023-06-19T06:18:40;6.10;;;4.97;;
29732;SDS011;16643;43.158;25.302;2023-06-19T06:21:10;6.57;;;4.32;;
29732;SDS011;16643;43.158;25.302;2023-06-19T06:23:41;6.70;;;4.68;;
29732;SDS011;16643;43.158;25.302;2023-06-19T06:26:20;11.77;;;5.32;;
29732;SDS011;16643;43.158;25.302;2023-06-19T06:29:19;8.07;;;5.47;;
29732;SDS011;16643;43.158;25.302;2023-06-19T06:34:46;6.65;;;4.95;;
29732;SDS011;16643;43.158;25.302;2023-06-19T06:37:25;10.27;;;5.07;;
29732;SDS011;16643;43.158;25.302;2023-06-19T06:40:23;7.15;;;5.65;;
29732;SDS011;16643;43.158;25.302;2023-06-19T06:46:35;9.27;;;5.65;;
29732;SDS011;16643;43.158;25.302;2023-06-19T07:03:02;6.60;;;5.00;;
29732;SDS011;16643;43.158;25.302;2023-06-19T07:05:28;7.18;;;5.78;;
29732;SDS011;16643;43.158;25.302;2023-06-19T07:08:04;6.80;;;5.87;;
29732;SDS011;16643;43.158;25.302;2023-06-19T07:10:46;7.22;;;5.72;;
29732;SDS011;16643;43.158;25.302;2023-06-19T07:13:17;9.90;;;5.97;;
29732;SDS011;16643;43.158;25.302;2023-06-19T07:19:12;11.48;;;6.53;;
29732;SDS011;16643;43.158;25.302;2023-06-19T07:22:00;8.68;;;6.65;;
29732;SDS011;16643;43.158;25.302;2023-06-19T07:25:23;7.30;;;6.13;;
29732;SDS011;16643;43.158;25.302;2023-06-19T07:27:56;14.85;;;7.13;;
29732;SDS011;16643;43.158;25.302;2023-06-19T07:30:25;8.70;;;6.90;;
29732;SDS011;16643;43.158;25.302;2023-06-19T07:32:54;7.93;;;6.82;;
29732;SDS011;16643;43.158;25.302;2023-06-19T07:35:20;9.40;;;7.00;;
29732;SDS011;16643;43.158;25.302;2023-06-19T07:40:45;9.40;;;7.07;;
29732;SDS011;16643;43.158;25.302;2023-06-19T07:43:11;9.25;;;7.43;;
29732;SDS011;16643;43.158;25.302;2023-06-19T07:45:40;8.30;;;6.95;;
29732;SDS011;16643;43.158;25.302;2023-06-19T07:48:06;9.90;;;8.90;;
29732;SDS011;16643;43.158;25.302;2023-06-19T07:50:32;10.55;;;8.68;;
29732;SDS011;16643;43.158;25.302;2023-06-19T07:52:58;10.23;;;9.13;;
29732;SDS011;16643;43.158;25.302;2023-06-19T07:55:25;9.80;;;8.35;;
29732;SDS011;16643;43.158;25.302;2023-06-19T07:57:51;9.43;;;8.38;;
29732;SDS011;16643;43.158;25.302;2023-06-19T08:00:24;10.88;;;9.15;;
29732;SDS011;16643;43.158;25.302;2023-06-19T08:02:49;10.57;;;9.30;;
29732;SDS011;16643;43.158;25.302;2023-06-19T08:05:18;8.93;;;8.02;;
29732;SDS011;16643;43.158;25.302;2023-06-19T08:07:44;9.60;;;8.45;;
29732;SDS011;16643;43.158;25.302;2023-06-19T08:10:10;9.75;;;8.63;;
29732;SDS011;16643;43.158;25.302;2023-06-19T08:12:36;9.95;;;8.40;;
29732;SDS011;16643;43.158;25.302;2023-06-19T08:15:01;9.95;;;8.45;;
29732;SDS011;16643;43.158;25.302;2023-06-19T08:17:29;9.02;;;8.02;;
29732;SDS011;16643;43.158;25.302;2023-06-19T08:19:54;14.50;;;8.43;;
29732;SDS011;16643;43.158;25.302;2023-06-19T08:22:23;14.85;;;8.77;;
29732;SDS011;16643;43.158;25.302;2023-06-19T08:24:50;12.60;;;8.90;;
29732;SDS011;16643;43.158;25.302;2023-06-19T08:27:16;10.68;;;7.97;;
29732;SDS011;16643;43.158;25.302;2023-06-19T08:29:41;11.32;;;8.73;;
29732;SDS011;16643;43.158;25.302;2023-06-19T08:32:08;11.10;;;9.48;;
29732;SDS011;16643;43.158;25.302;2023-06-19T08:34:34;9.52;;;8.07;;
29732;SDS011;16643;43.158;25.302;2023-06-19T08:37:00;9.55;;;8.65;;
29732;SDS011;16643;43.158;25.302;2023-06-19T08:39:26;9.88;;;8.88;;
29732;SDS011;16643;43.158;25.302;2023-06-19T08:41:52;12.30;;;9.40;;
29732;SDS011;16643;43.158;25.302;2023-06-19T08:44:20;9.95;;;8.93;;
29732;SDS011;16643;43.158;25.302;2023-06-19T08:46:46;11.27;;;8.98;;
29732;SDS011;16643;43.158;25.302;2023-06-19T08:49:12;10.82;;;9.13;;
29732;SDS011;16643;43.158;25.302;2023-06-19T08:51:38;10.85;;;9.75;;
29732;SDS011;16643;43.158;25.302;2023-06-19T08:54:05;11.38;;;9.77;;
29732;SDS011;16643;43.158;25.302;2023-06-19T08:56:32;9.90;;;8.90;;
29732;SDS011;16643;43.158;25.302;2023-06-19T08:59:11;10.32;;;9.15;;
29732;SDS011;16643;43.158;25.302;2023-06-19T09:01:46;8.90;;;8.00;;
29732;SDS011;16643;43.158;25.302;2023-06-19T09:04:21;9.70;;;8.45;;
29732;SDS011;16643;43.158;25.302;2023-06-19T09:06:55;9.38;;;8.38;;
29732;SDS011;16643;43.158;25.302;2023-06-19T09:09:24;11.68;;;9.30;;
29732;SDS011;16643;43.158;25.302;2023-06-19T09:14:33;9.85;;;8.80;;
29732;SDS011;16643;43.158;25.302;2023-06-19T09:17:12;11.30;;;9.00;;
29732;SDS011;16643;43.158;25.302;2023-06-19T09:19:49;9.25;;;8.35;;
29732;SDS011;16643;43.158;25.302;2023-06-19T09:22:21;9.52;;;8.60;;
29732;SDS011;16643;43.158;25.302;2023-06-19T09:24:47;10.07;;;8.97;;
29732;SDS011;16643;43.158;25.302;2023-06-19T09:27:14;9.98;;;9.00;;
29732;SDS011;16643;43.158;25.302;2023-06-19T09:29:44;10.25;;;9.23;;
29732;SDS011;16643;43.158;25.302;2023-06-19T09:34:42;10.80;;;8.05;;
29732;SDS011;16643;43.158;25.302;2023-06-19T09:37:09;9.85;;;8.20;;
29732;SDS011;16643;43.158;25.302;2023-06-19T09:39:38;9.38;;;8.00;;
29732;SDS011;16643;43.158;25.302;2023-06-19T09:42:08;9.48;;;8.00;;
29732;SDS011;16643;43.158;25.302;2023-06-19T09:44:41;11.50;;;8.98;;
29732;SDS011;16643;43.158;25.302;2023-06-19T09:47:15;8.90;;;8.05;;
29732;SDS011;16643;43.158;25.302;2023-06-19T09:49:49;9.05;;;7.85;;
29732;SDS011;16643;43.158;25.302;2023-06-19T09:52:19;8.95;;;7.95;;
29732;SDS011;16643;43.158;25.302;2023-06-19T09:54:47;8.60;;;7.72;;
29732;SDS011;16643;43.158;25.302;2023-06-19T09:57:15;9.07;;;8.20;;
29732;SDS011;16643;43.158;25.302;2023-06-19T09:59:41;9.27;;;8.30;;
29732;SDS011;16643;43.158;25.302;2023-06-19T10:02:08;9.70;;;8.65;;
29732;SDS011;16643;43.158;25.302;2023-06-19T10:04:42;10.13;;;8.40;;
29732;SDS011;16643;43.158;25.302;2023-06-19T10:07:20;8.80;;;7.53;;
29732;SDS011;16643;43.158;25.302;2023-06-19T10:09:54;10.05;;;7.90;;
29732;SDS011;16643;43.158;25.302;2023-06-19T10:12:22;10.27;;;7.70;;
29732;SDS011;16643;43.158;25.302;2023-06-19T10:14:47;11.38;;;8.20;;
29732;SDS011;16643;43.158;25.302;2023-06-19T10:17:16;8.93;;;7.85;;
29732;SDS011;16643;43.158;25.302;2023-06-19T10:19:50;12.77;;;7.18;;
29732;SDS011;16643;43.158;25.302;2023-06-19T10:22:20;8.15;;;7.03;;
29732;SDS011;16643;43.158;25.302;2023-06-19T10:24:49;9.38;;;6.65;;
29732;SDS011;16643;43.158;25.302;2023-06-19T10:27:20;8.80;;;6.40;;
29732;SDS011;16643;43.158;25.302;2023-06-19T10:29:54;7.43;;;6.72;;
29732;SDS011;16643;43.158;25.302;2023-06-19T10:32:22;8.02;;;7.00;;
29732;SDS011;16643;43.158;25.302;2023-06-19T10:34:48;7.97;;;7.05;;
29732;SDS011;16643;43.158;25.302;2023-06-19T10:37:17;10.25;;;6.47;;
29732;SDS011;16643;43.158;25.302;2023-06-19T10:39:43;8.40;;;6.50;;
29732;SDS011;16643;43.158;25.302;2023-06-19T10:42:09;7.35;;;6.60;;
29732;SDS011;16643;43.158;25.302;2023-06-19T10:44:35;8.48;;;6.78;;
29732;SDS011;16643;43.158;25.302;2023-06-19T10:47:03;10.35;;;6.75;;
29732;SDS011;16643;43.158;25.302;2023-06-19T10:49:30;7.80;;;6.72;;
29732;SDS011;16643;43.158;25.302;2023-06-19T10:51:58;8.10;;;6.38;;
29732;SDS011;16643;43.158;25.302;2023-06-19T10:54:25;6.78;;;6.07;;
29732;SDS011;16643;43.158;25.302;2023-06-19T10:56:52;8.52;;;6.28;;
29732;SDS011;16643;43.158;25.302;2023-06-19T10:59:19;6.97;;;5.95;;
29732;SDS011;16643;43.158;25.302;2023-06-19T11:01:45;8.60;;;6.18;;
29732;SDS011;16643;43.158;25.302;2023-06-19T11:04:12;6.80;;;5.82;;
29732;SDS011;16643;43.158;25.302;2023-06-19T11:06:40;8.70;;;5.97;;
29732;SDS011;16643;43.158;25.302;2023-06-19T11:09:08;6.70;;;5.68;;
29732;SDS011;16643;43.158;25.302;2023-06-19T11:11:38;6.97;;;6.00;;
29732;SDS011;16643;43.158;25.302;2023-06-19T11:14:08;6.32;;;5.72;;
29732;SDS011;16643;43.158;25.302;2023-06-19T11:16:35;7.53;;;6.25;;
29732;SDS011;16643;43.158;25.302;2023-06-19T11:19:03;7.95;;;6.35;;
29732;SDS011;16643;43.158;25.302;2023-06-19T11:21:32;14.25;;;12.00;;
29732;SDS011;16643;43.158;25.302;2023-06-19T11:24:00;26.48;;;18.95;;
29732;SDS011;16643;43.158;25.302;2023-06-19T11:26:26;38.03;;;23.80;;
29732;SDS011;16643;43.158;25.302;2023-06-19T11:28:52;8.52;;;5.50;;
29732;SDS011;16643;43.158;25.302;2023-06-19T11:31:24;5.60;;;4.97;;
29732;SDS011;16643;43.158;25.302;2023-06-19T11:34:00;6.70;;;5.55;;
29732;SDS011;16643;43.158;25.302;2023-06-19T11:36:27;6.88;;;5.90;;
29732;SDS011;16643;43.158;25.302;2023-06-19T11:41:26;6.97;;;5.40;;
29732;SDS011;16643;43.158;25.302;2023-06-19T11:43:59;7.93;;;5.57;;
29732;SDS011;16643;43.158;25.302;2023-06-19T11:46:36;6.85;;;5.47;;
29732;SDS011;16643;43.158;25.302;2023-06-19T11:49:15;6.30;;;5.53;;
29732;SDS011;16643;43.158;25.302;2023-06-19T11:51:45;5.97;;;5.35;;
29732;SDS011;16643;43.158;25.302;2023-06-19T11:54:14;8.07;;;5.20;;
29732;SDS011;16643;43.158;25.302;2023-06-19T11:56:40;6.20;;;4.97;;
29732;SDS011;16643;43.158;25.302;2023-06-19T11:59:06;7.30;;;5.80;;
29732;SDS011;16643;43.158;25.302;2023-06-19T12:01:32;7.85;;;5.95;;
29732;SDS011;16643;43.158;25.302;2023-06-19T12:03:59;7.90;;;5.38;;
29732;SDS011;16643;43.158;25.302;2023-06-19T12:06:25;6.40;;;5.00;;
29732;SDS011;16643;43.158;25.302;2023-06-19T12:08:52;8.07;;;5.30;;
29732;SDS011;16643;43.158;25.302;2023-06-19T12:11:17;8.20;;;4.80;;
29732;SDS011;16643;43.158;25.302;2023-06-19T12:13:43;6.90;;;4.97;;
29732;SDS011;16643;43.158;25.302;2023-06-19T12:16:10;7.13;;;4.43;;
29732;SDS011;16643;43.158;25.302;2023-06-19T12:18:36;6.38;;;4.65;;
29732;SDS011;16643;43.158;25.302;2023-06-19T12:21:02;6.10;;;4.72;;
29732;SDS011;16643;43.158;25.302;2023-06-19T12:23:29;7.05;;;4.65;;
29732;SDS011;16643;43.158;25.302;2023-06-19T12:25:55;5.65;;;4.30;;
29732;SDS011;16643;43.158;25.302;2023-06-19T12:28:20;6.60;;;3.70;;
29732;SDS011;16643;43.158;25.302;2023-06-19T12:30:46;5.63;;;4.35;;
29732;SDS011;16643;43.158;25.302;2023-06-19T12:33:20;5.13;;;4.22;;
29732;SDS011;16643;43.158;25.302;2023-06-19T12:35:46;5.65;;;3.72;;
29732;SDS011;16643;43.158;25.302;2023-06-19T12:38:12;5.68;;;3.75;;
29732;SDS011;16643;43.158;25.302;2023-06-19T12:40:39;10.18;;;3.70;;
29732;SDS011;16643;43.158;25.302;2023-06-19T12:43:05;6.65;;;4.60;;
29732;SDS011;16643;43.158;25.302;2023-06-19T12:45:31;5.43;;;4.35;;
29732;SDS011;16643;43.158;25.302;2023-06-19T12:47:57;4.60;;;3.75;;
29732;SDS011;16643;43.158;25.302;2023-06-19T12:50:23;6.57;;;4.68;;
29732;SDS011;16643;43.158;25.302;2023-06-19T12:52:49;5.68;;;3.65;;
29732;SDS011;16643;43.158;25.302;2023-06-19T12:55:15;5.18;;;3.95;;
29732;SDS011;16643;43.158;25.302;2023-06-19T12:57:41;5.88;;;3.97;;
29732;SDS011;16643;43.158;25.302;2023-06-19T13:00:10;5.47;;;4.25;;
29732;SDS011;16643;43.158;25.302;2023-06-19T13:02:40;7.45;;;4.60;;
29732;SDS011;16643;43.158;25.302;2023-06-19T13:05:06;4.93;;;4.43;;
29732;SDS011;16643;43.158;25.302;2023-06-19T13:07:32;6.72;;;4.65;;
29732;SDS011;16643;43.158;25.302;2023-06-19T13:09:58;8.35;;;5.35;;
29732;SDS011;16643;43.158;25.302;2023-06-19T13:12:24;7.13;;;5.20;;
29732;SDS011;16643;43.158;25.302;2023-06-19T13:14:49;5.95;;;5.07;;
29732;SDS011;16643;43.158;25.302;2023-06-19T13:17:15;12.63;;;5.10;;
29732;SDS011;16643;43.158;25.302;2023-06-19T13:19:40;6.95;;;4.97;;
29732;SDS011;16643;43.158;25.302;2023-06-19T13:22:06;7.18;;;5.40;;
29732;SDS011;16643;43.158;25.302;2023-06-19T13:24:32;13.00;;;6.28;;
29732;SDS011;16643;43.158;25.302;2023-06-19T13:26:58;10.15;;;5.22;;
29732;SDS011;16643;43.158;25.302;2023-06-19T13:29:23;6.35;;;5.20;;
29732;SDS011;16643;43.158;25.302;2023-06-19T13:31:49;7.63;;;5.10;;
29732;SDS011;16643;43.158;25.302;2023-06-19T13:34:15;8.73;;;5.65;;
29732;SDS011;16643;43.158;25.302;2023-06-19T13:36:41;7.57;;;5.20;;
29732;SDS011;16643;43.158;25.302;2023-06-19T13:39:07;6.97;;;4.95;;
29732;SDS011;16643;43.158;25.302;2023-06-19T13:41:32;7.07;;;5.38;;
29732;SDS011;16643;43.158;25.302;2023-06-19T13:43:59;7.03;;;4.87;;
29732;SDS011;16643;43.158;25.302;2023-06-19T13:46:26;6.60;;;5.13;;
29732;SDS011;16643;43.158;25.302;2023-06-19T13:48:52;5.75;;;4.57;;
29732;SDS011;16643;43.158;25.302;2023-06-19T13:51:18;8.23;;;4.97;;
29732;SDS011;16643;43.158;25.302;2023-06-19T13:53:47;6.65;;;4.97;;
29732;SDS011;16643;43.158;25.302;2023-06-19T13:56:14;8.50;;;5.13;;
29732;SDS011;16643;43.158;25.302;2023-06-19T13:58:40;7.13;;;5.55;;
29732;SDS011;16643;43.158;25.302;2023-06-19T14:01:06;8.00;;;6.25;;
29732;SDS011;16643;43.158;25.302;2023-06-19T14:03:32;6.80;;;5.53;;
29732;SDS011;16643;43.158;25.302;2023-06-19T14:05:57;7.18;;;5.85;;
29732;SDS011;16643;43.158;25.302;2023-06-19T14:08:23;9.02;;;6.28;;
29732;SDS011;16643;43.158;25.302;2023-06-19T14:10:50;9.75;;;6.07;;
29732;SDS011;16643;43.158;25.302;2023-06-19T14:13:16;7.15;;;6.45;;
29732;SDS011;16643;43.158;25.302;2023-06-19T14:15:42;6.50;;;5.55;;
29732;SDS011;16643;43.158;25.302;2023-06-19T14:18:08;7.40;;;5.68;;
29732;SDS011;16643;43.158;25.302;2023-06-19T14:20:33;8.25;;;5.03;;
29732;SDS011;16643;43.158;25.302;2023-06-19T14:22:59;7.85;;;5.53;;
29732;SDS011;16643;43.158;25.302;2023-06-19T14:25:25;7.78;;;5.35;;
29732;SDS011;16643;43.158;25.302;2023-06-19T14:27:50;9.05;;;5.10;;
29732;SDS011;16643;43.158;25.302;2023-06-19T14:30:16;6.88;;;4.75;;
29732;SDS011;16643;43.158;25.302;2023-06-19T14:32:42;8.85;;;5.03;;
29732;SDS011;16643;43.158;25.302;2023-06-19T14:35:07;6.13;;;4.60;;
29732;SDS011;16643;43.158;25.302;2023-06-19T14:37:33;12.32;;;5.18;;
29732;SDS011;16643;43.158;25.302;2023-06-19T14:39:58;5.85;;;4.78;;
29732;SDS011;16643;43.158;25.302;2023-06-19T14:42:27;8.40;;;4.68;;
29732;SDS011;16643;43.158;25.302;2023-06-19T14:44:53;5.63;;;4.53;;
29732;SDS011;16643;43.158;25.302;2023-06-19T14:47:19;6.13;;;4.82;;
29732;SDS011;16643;43.158;25.302;2023-06-19T14:49:45;6.50;;;4.38;;
29732;SDS011;16643;43.158;25.302;2023-06-19T14:52:11;4.78;;;3.95;;
29732;SDS011;16643;43.158;25.302;2023-06-19T14:54:36;4.93;;;4.38;;
29732;SDS011;16643;43.158;25.302;2023-06-19T14:57:03;5.55;;;4.47;;
29732;SDS011;16643;43.158;25.302;2023-06-19T14:59:29;7.57;;;4.45;;
29732;SDS011;16643;43.158;25.302;2023-06-19T15:01:55;7.43;;;4.80;;
29732;SDS011;16643;43.158;25.302;2023-06-19T15:04:21;6.93;;;4.50;;
29732;SDS011;16643;43.158;25.302;2023-06-19T15:06:48;6.30;;;4.85;;
29732;SDS011;16643;43.158;25.302;2023-06-19T15:09:13;7.80;;;4.05;;
29732;SDS011;16643;43.158;25.302;2023-06-19T15:11:39;7.05;;;5.18;;
29732;SDS011;16643;43.158;25.302;2023-06-19T15:14:04;5.53;;;4.00;;
29732;SDS011;16643;43.158;25.302;2023-06-19T15:16:30;6.93;;;4.22;;
29732;SDS011;16643;43.158;25.302;2023-06-19T15:18:56;4.57;;;3.67;;
29732;SDS011;16643;43.158;25.302;2023-06-19T15:21:21;5.00;;;3.30;;
29732;SDS011;16643;43.158;25.302;2023-06-19T15:23:47;5.35;;;3.28;;